Merrill, Wisconsin
Current Conditions -  °F | °C
As of 12:35 PM on Saturday 25 Oct 2014 (Local Time) from KRRL Reporting Station
Clear Clear  
Wind Chill: 59°   Ceiling: Unl
Heat Index: 59°   Visibility: 10mi
Dew Point: 30°   Wind: 16mph
Humidity: 34%   Direction: 320°NW
Pressure: 29.88"   Gusts: 28mph
Location:  45.18°N, 89.69°W
Report Text: KRRL 251735Z AUTO 32014G24KT 10SM CLR 15/M01 A2988 RMK AO2 T01511009
Loading
Personal Weather Stations






























Interactive Weather Map New forecast layout! Learn more

10-Day Weather Forecast

Advertisements
Track Severe Weather on mobile